sensor_id;sensor_type;location;lat;lon;timestamp;temperature;humidity
25154;DHT22;47555;51.038;6.280;2023-05-07T00:02:23;14.20;99.90
25154;DHT22;47555;51.038;6.280;2023-05-07T00:04:49;14.30;99.90
25154;DHT22;47555;51.038;6.280;2023-05-07T00:07:15;14.30;99.90
25154;DHT22;47555;51.038;6.280;2023-05-07T00:09:40;14.30;99.90
25154;DHT22;47555;51.038;6.280;2023-05-07T00:12:06;14.30;99.90
25154;DHT22;47555;51.038;6.280;2023-05-07T00:14:32;14.30;99.90
25154;DHT22;47555;51.038;6.280;2023-05-07T00:16:58;14.40;99.90
25154;DHT22;47555;51.038;6.280;2023-05-07T00:19:23;14.30;99.90
25154;DHT22;47555;51.038;6.280;2023-05-07T00:25:56;14.30;99.90
25154;DHT22;47555;51.038;6.280;2023-05-07T00:28:21;14.30;99.90
25154;DHT22;47555;51.038;6.280;2023-05-07T00:30:47;14.30;99.90
25154;DHT22;47555;51.038;6.280;2023-05-07T00:33:12;14.30;99.90
25154;DHT22;47555;51.038;6.280;2023-05-07T00:35:38;14.30;99.90
25154;DHT22;47555;51.038;6.280;2023-05-07T00:38:03;14.30;99.90
25154;DHT22;47555;51.038;6.280;2023-05-07T00:40:29;14.30;99.90
25154;DHT22;47555;51.038;6.280;2023-05-07T00:42:55;14.30;99.90
25154;DHT22;47555;51.038;6.280;2023-05-07T00:45:26;14.30;99.90
25154;DHT22;47555;51.038;6.280;2023-05-07T00:47:58;14.30;99.90
25154;DHT22;47555;51.038;6.280;2023-05-07T00:50:24;14.20;99.90
25154;DHT22;47555;51.038;6.280;2023-05-07T00:52:50;14.20;99.90
25154;DHT22;47555;51.038;6.280;2023-05-07T00:55:16;14.30;99.90
25154;DHT22;47555;51.038;6.280;2023-05-07T00:57:42;14.30;99.90
25154;DHT22;47555;51.038;6.280;2023-05-07T01:00:09;14.20;99.90
25154;DHT22;47555;51.038;6.280;2023-05-07T01:02:35;14.20;99.90
25154;DHT22;47555;51.038;6.280;2023-05-07T01:05:02;14.20;99.90
25154;DHT22;47555;51.038;6.280;2023-05-07T01:07:29;14.20;99.90
25154;DHT22;47555;51.038;6.280;2023-05-07T01:09:55;14.20;99.90
25154;DHT22;47555;51.038;6.280;2023-05-07T01:12:22;14.10;99.90
25154;DHT22;47555;51.038;6.280;2023-05-07T01:14:48;14.10;99.90
25154;DHT22;47555;51.038;6.280;2023-05-07T01:17:15;14.10;99.90
25154;DHT22;47555;51.038;6.280;2023-05-07T01:19:41;14.10;99.90
25154;DHT22;47555;51.038;6.280;2023-05-07T01:22:10;14.10;99.90
25154;DHT22;47555;51.038;6.280;2023-05-07T01:24:40;14.10;99.90
25154;DHT22;47555;51.038;6.280;2023-05-07T01:27:06;14.10;99.90
25154;DHT22;47555;51.038;6.280;2023-05-07T01:29:32;14.00;99.90
25154;DHT22;47555;51.038;6.280;2023-05-07T01:31:59;14.00;99.90
25154;DHT22;47555;51.038;6.280;2023-05-07T01:34:26;14.00;99.90
25154;DHT22;47555;51.038;6.280;2023-05-07T01:36:54;13.90;99.90
25154;DHT22;47555;51.038;6.280;2023-05-07T01:39:22;14.00;99.90
25154;DHT22;47555;51.038;6.280;2023-05-07T01:41:48;13.90;99.90
25154;DHT22;47555;51.038;6.280;2023-05-07T01:44:14;13.90;99.90
25154;DHT22;47555;51.038;6.280;2023-05-07T01:46:40;14.00;99.90
25154;DHT22;47555;51.038;6.280;2023-05-07T01:49:06;14.00;99.90
25154;DHT22;47555;51.038;6.280;2023-05-07T01:51:32;13.90;99.90
25154;DHT22;47555;51.038;6.280;2023-05-07T01:53:58;13.90;99.90
25154;DHT22;47555;51.038;6.280;2023-05-07T01:56:24;14.00;99.90
25154;DHT22;47555;51.038;6.280;2023-05-07T01:58:50;13.90;99.90
25154;DHT22;47555;51.038;6.280;2023-05-07T02:01:17;13.90;99.90
25154;DHT22;47555;51.038;6.280;2023-05-07T02:03:43;13.90;99.90
25154;DHT22;47555;51.038;6.280;2023-05-07T02:06:09;13.90;99.90
25154;DHT22;47555;51.038;6.280;2023-05-07T02:08:34;13.80;99.90
25154;DHT22;47555;51.038;6.280;2023-05-07T02:11:00;13.80;99.90
25154;DHT22;47555;51.038;6.280;2023-05-07T02:13:31;13.80;99.90
25154;DHT22;47555;51.038;6.280;2023-05-07T02:15:57;13.80;99.90
25154;DHT22;47555;51.038;6.280;2023-05-07T02:18:23;13.80;99.90
25154;DHT22;47555;51.038;6.280;2023-05-07T02:20:48;13.70;99.90
25154;DHT22;47555;51.038;6.280;2023-05-07T02:23:13;13.70;99.90
25154;DHT22;47555;51.038;6.280;2023-05-07T02:25:39;13.70;99.90
25154;DHT22;47555;51.038;6.280;2023-05-07T02:28:05;13.70;99.90
25154;DHT22;47555;51.038;6.280;2023-05-07T02:30:30;13.70;99.90
25154;DHT22;47555;51.038;6.280;2023-05-07T02:32:56;13.60;99.90
25154;DHT22;47555;51.038;6.280;2023-05-07T02:35:21;13.60;99.90
25154;DHT22;47555;51.038;6.280;2023-05-07T02:37:46;13.60;99.90
25154;DHT22;47555;51.038;6.280;2023-05-07T02:40:12;13.50;99.90
25154;DHT22;47555;51.038;6.280;2023-05-07T02:42:38;13.50;99.90
25154;DHT22;47555;51.038;6.280;2023-05-07T02:45:04;13.50;99.90
25154;DHT22;47555;51.038;6.280;2023-05-07T02:47:29;13.40;99.90
25154;DHT22;47555;51.038;6.280;2023-05-07T02:49:55;13.40;99.90
25154;DHT22;47555;51.038;6.280;2023-05-07T02:52:21;13.40;99.90
25154;DHT22;47555;51.038;6.280;2023-05-07T02:54:46;13.40;99.90
25154;DHT22;47555;51.038;6.280;2023-05-07T02:57:12;13.40;99.90
25154;DHT22;47555;51.038;6.280;2023-05-07T02:59:37;13.40;99.90
25154;DHT22;47555;51.038;6.280;2023-05-07T03:02:03;13.40;99.90
25154;DHT22;47555;51.038;6.280;2023-05-07T03:04:28;13.40;99.90
25154;DHT22;47555;51.038;6.280;2023-05-07T03:06:57;13.40;99.90
25154;DHT22;47555;51.038;6.280;2023-05-07T03:09:22;13.40;99.90
25154;DHT22;47555;51.038;6.280;2023-05-07T03:11:48;13.40;99.90
25154;DHT22;47555;51.038;6.280;2023-05-07T03:14:13;13.40;99.90
25154;DHT22;47555;51.038;6.280;2023-05-07T03:16:39;13.30;99.90
25154;DHT22;47555;51.038;6.280;2023-05-07T03:19:05;13.30;99.90
25154;DHT22;47555;51.038;6.280;2023-05-07T03:21:31;13.30;99.90
25154;DHT22;47555;51.038;6.280;2023-05-07T03:23:59;13.30;99.90
25154;DHT22;47555;51.038;6.280;2023-05-07T03:26:24;13.30;99.90
25154;DHT22;47555;51.038;6.280;2023-05-07T03:28:50;13.30;99.90
25154;DHT22;47555;51.038;6.280;2023-05-07T03:31:16;13.20;99.90
25154;DHT22;47555;51.038;6.280;2023-05-07T03:33:55;13.20;99.90
25154;DHT22;47555;51.038;6.280;2023-05-07T03:36:21;13.20;99.90
25154;DHT22;47555;51.038;6.280;2023-05-07T03:38:48;13.20;99.90
25154;DHT22;47555;51.038;6.280;2023-05-07T03:41:14;13.10;99.90
25154;DHT22;47555;51.038;6.280;2023-05-07T03:43:39;13.10;99.90
25154;DHT22;47555;51.038;6.280;2023-05-07T03:46:05;13.10;99.90
25154;DHT22;47555;51.038;6.280;2023-05-07T03:48:30;13.10;99.90
25154;DHT22;47555;51.038;6.280;2023-05-07T03:50:57;13.10;99.90
25154;DHT22;47555;51.038;6.280;2023-05-07T03:53:23;13.00;99.90
25154;DHT22;47555;51.038;6.280;2023-05-07T03:55:49;13.00;99.90
25154;DHT22;47555;51.038;6.280;2023-05-07T03:58:15;13.00;99.90
25154;DHT22;47555;51.038;6.280;2023-05-07T04:00:41;13.00;99.90
25154;DHT22;47555;51.038;6.280;2023-05-07T04:03:06;13.00;99.90
25154;DHT22;47555;51.038;6.280;2023-05-07T04:05:32;13.00;99.90
25154;DHT22;47555;51.038;6.280;2023-05-07T04:08:01;13.00;99.90
25154;DHT22;47555;51.038;6.280;2023-05-07T04:10:28;13.00;99.90
25154;DHT22;47555;51.038;6.280;2023-05-07T04:12:54;13.00;99.90
25154;DHT22;47555;51.038;6.280;2023-05-07T04:15:19;13.00;99.90
25154;DHT22;47555;51.038;6.280;2023-05-07T04:17:45;13.00;99.90
25154;DHT22;47555;51.038;6.280;2023-05-07T04:20:15;13.00;99.90
25154;DHT22;47555;51.038;6.280;2023-05-07T04:22:41;13.10;99.90
25154;DHT22;47555;51.038;6.280;2023-05-07T04:25:08;13.10;99.90
25154;DHT22;47555;51.038;6.280;2023-05-07T04:27:34;13.10;99.90
25154;DHT22;47555;51.038;6.280;2023-05-07T04:30:00;13.10;99.90
25154;DHT22;47555;51.038;6.280;2023-05-07T04:32:26;13.10;99.90
25154;DHT22;47555;51.038;6.280;2023-05-07T04:34:52;13.10;99.90
25154;DHT22;47555;51.038;6.280;2023-05-07T04:37:17;13.20;99.90
25154;DHT22;47555;51.038;6.280;2023-05-07T04:39:43;13.20;99.90
25154;DHT22;47555;51.038;6.280;2023-05-07T04:42:08;13.20;99.90
25154;DHT22;47555;51.038;6.280;2023-05-07T04:44:34;13.30;99.90
25154;DHT22;47555;51.038;6.280;2023-05-07T04:47:00;13.30;99.90
25154;DHT22;47555;51.038;6.280;2023-05-07T04:49:26;13.30;99.90
25154;DHT22;47555;51.038;6.280;2023-05-07T04:51:51;13.40;99.90
25154;DHT22;47555;51.038;6.280;2023-05-07T04:54:17;13.40;99.90
25154;DHT22;47555;51.038;6.280;2023-05-07T04:56:42;13.40;99.90
25154;DHT22;47555;51.038;6.280;2023-05-07T04:59:08;13.50;99.90
25154;DHT22;47555;51.038;6.280;2023-05-07T05:01:33;13.50;99.90
25154;DHT22;47555;51.038;6.280;2023-05-07T05:03:59;13.60;99.90
25154;DHT22;47555;51.038;6.280;2023-05-07T05:06:25;13.60;99.90
25154;DHT22;47555;51.038;6.280;2023-05-07T05:08:51;13.60;99.90
25154;DHT22;47555;51.038;6.280;2023-05-07T05:11:16;13.60;99.90
25154;DHT22;47555;51.038;6.280;2023-05-07T05:13:42;13.60;99.90
25154;DHT22;47555;51.038;6.280;2023-05-07T05:16:07;13.70;99.90
25154;DHT22;47555;51.038;6.280;2023-05-07T05:18:33;13.70;99.90
25154;DHT22;47555;51.038;6.280;2023-05-07T05:20:59;13.70;99.90
25154;DHT22;47555;51.038;6.280;2023-05-07T05:23:24;13.70;99.90
25154;DHT22;47555;51.038;6.280;2023-05-07T05:25:50;13.70;99.90
25154;DHT22;47555;51.038;6.280;2023-05-07T05:28:15;13.70;99.90
25154;DHT22;47555;51.038;6.280;2023-05-07T05:30:41;13.80;99.90
25154;DHT22;47555;51.038;6.280;2023-05-07T05:33:06;13.80;99.90
25154;DHT22;47555;51.038;6.280;2023-05-07T05:35:32;13.90;99.90
25154;DHT22;47555;51.038;6.280;2023-05-07T05:37:57;13.90;99.90
25154;DHT22;47555;51.038;6.280;2023-05-07T05:40:23;14.00;99.90
25154;DHT22;47555;51.038;6.280;2023-05-07T05:42:48;14.10;99.90
25154;DHT22;47555;51.038;6.280;2023-05-07T05:45:14;14.20;99.90
25154;DHT22;47555;51.038;6.280;2023-05-07T05:47:40;14.20;99.90
25154;DHT22;47555;51.038;6.280;2023-05-07T05:50:06;14.30;99.90
25154;DHT22;47555;51.038;6.280;2023-05-07T05:52:32;14.30;99.90
25154;DHT22;47555;51.038;6.280;2023-05-07T05:54:57;14.40;99.90
25154;DHT22;47555;51.038;6.280;2023-05-07T05:57:23;14.60;99.90
25154;DHT22;47555;51.038;6.280;2023-05-07T05:59:51;14.70;99.90
25154;DHT22;47555;51.038;6.280;2023-05-07T06:02:17;14.90;99.90
25154;DHT22;47555;51.038;6.280;2023-05-07T06:04:43;15.00;99.90
25154;DHT22;47555;51.038;6.280;2023-05-07T06:07:08;15.20;99.90
25154;DHT22;47555;51.038;6.280;2023-05-07T06:09:34;15.30;99.90
25154;DHT22;47555;51.038;6.280;2023-05-07T06:11:59;15.50;99.90
25154;DHT22;47555;51.038;6.280;2023-05-07T06:14:25;15.70;99.90
25154;DHT22;47555;51.038;6.280;2023-05-07T06:16:50;15.80;99.90
25154;DHT22;47555;51.038;6.280;2023-05-07T06:19:16;15.90;99.90
25154;DHT22;47555;51.038;6.280;2023-05-07T06:21:43;15.90;99.90
25154;DHT22;47555;51.038;6.280;2023-05-07T06:24:09;15.90;99.90
25154;DHT22;47555;51.038;6.280;2023-05-07T06:26:34;15.90;99.90
25154;DHT22;47555;51.038;6.280;2023-05-07T06:29:00;15.90;99.90
25154;DHT22;47555;51.038;6.280;2023-05-07T06:31:30;16.00;99.90
25154;DHT22;47555;51.038;6.280;2023-05-07T06:33:57;16.10;99.90
25154;DHT22;47555;51.038;6.280;2023-05-07T06:36:23;16.20;99.90
25154;DHT22;47555;51.038;6.280;2023-05-07T06:38:48;16.30;99.90
25154;DHT22;47555;51.038;6.280;2023-05-07T06:41:14;16.30;99.90
25154;DHT22;47555;51.038;6.280;2023-05-07T06:43:39;16.40;99.90
25154;DHT22;47555;51.038;6.280;2023-05-07T06:46:05;16.40;99.90
25154;DHT22;47555;51.038;6.280;2023-05-07T06:48:30;16.50;99.90
25154;DHT22;47555;51.038;6.280;2023-05-07T06:50:56;16.50;99.90
25154;DHT22;47555;51.038;6.280;2023-05-07T06:53:23;16.60;99.90
25154;DHT22;47555;51.038;6.280;2023-05-07T06:55:49;16.60;99.90
25154;DHT22;47555;51.038;6.280;2023-05-07T06:58:14;16.70;99.90
25154;DHT22;47555;51.038;6.280;2023-05-07T07:00:40;16.70;99.90
25154;DHT22;47555;51.038;6.280;2023-05-07T07:03:06;16.80;99.90
25154;DHT22;47555;51.038;6.280;2023-05-07T07:05:32;16.80;99.90
25154;DHT22;47555;51.038;6.280;2023-05-07T07:07:57;17.00;99.90
25154;DHT22;47555;51.038;6.280;2023-05-07T07:10:23;17.10;99.90
25154;DHT22;47555;51.038;6.280;2023-05-07T07:12:49;17.10;99.90
25154;DHT22;47555;51.038;6.280;2023-05-07T07:15:15;17.20;99.90
25154;DHT22;47555;51.038;6.280;2023-05-07T07:17:41;17.30;99.90
25154;DHT22;47555;51.038;6.280;2023-05-07T07:20:07;17.40;99.90
25154;DHT22;47555;51.038;6.280;2023-05-07T07:22:32;17.40;99.90
25154;DHT22;47555;51.038;6.280;2023-05-07T07:24:58;17.40;99.90
25154;DHT22;47555;51.038;6.280;2023-05-07T07:27:23;17.50;99.90
25154;DHT22;47555;51.038;6.280;2023-05-07T07:29:49;17.60;99.90
25154;DHT22;47555;51.038;6.280;2023-05-07T07:32:15;17.70;99.90
25154;DHT22;47555;51.038;6.280;2023-05-07T07:34:41;17.80;99.90
25154;DHT22;47555;51.038;6.280;2023-05-07T07:37:06;17.80;99.90
25154;DHT22;47555;51.038;6.280;2023-05-07T07:39:32;17.80;99.90
25154;DHT22;47555;51.038;6.280;2023-05-07T07:41:58;17.90;99.90
25154;DHT22;47555;51.038;6.280;2023-05-07T07:44:23;17.90;99.90
25154;DHT22;47555;51.038;6.280;2023-05-07T07:46:49;18.10;99.90
25154;DHT22;47555;51.038;6.280;2023-05-07T07:49:15;18.10;99.90
25154;DHT22;47555;51.038;6.280;2023-05-07T07:51:41;18.20;99.90
25154;DHT22;47555;51.038;6.280;2023-05-07T07:54:07;18.20;99.90
25154;DHT22;47555;51.038;6.280;2023-05-07T07:56:33;18.30;99.90
25154;DHT22;47555;51.038;6.280;2023-05-07T07:59:02;18.40;99.90
25154;DHT22;47555;51.038;6.280;2023-05-07T08:01:29;18.50;99.90
25154;DHT22;47555;51.038;6.280;2023-05-07T08:03:55;18.50;99.90
25154;DHT22;47555;51.038;6.280;2023-05-07T08:06:21;18.60;99.90
25154;DHT22;47555;51.038;6.280;2023-05-07T08:08:46;18.90;99.90
25154;DHT22;47555;51.038;6.280;2023-05-07T08:11:12;19.00;99.90
25154;DHT22;47555;51.038;6.280;2023-05-07T08:13:38;19.10;95.50
25154;DHT22;47555;51.038;6.280;2023-05-07T08:16:04;19.30;97.10
25154;DHT22;47555;51.038;6.280;2023-05-07T08:18:30;19.50;96.90
25154;DHT22;47555;51.038;6.280;2023-05-07T08:20:55;19.80;94.70
25154;DHT22;47555;51.038;6.280;2023-05-07T08:23:21;20.10;92.30
25154;DHT22;47555;51.038;6.280;2023-05-07T08:25:47;20.10;85.00
25154;DHT22;47555;51.038;6.280;2023-05-07T08:28:13;20.20;89.70
25154;DHT22;47555;51.038;6.280;2023-05-07T08:30:38;20.30;87.90
25154;DHT22;47555;51.038;6.280;2023-05-07T08:33:04;20.30;87.00
25154;DHT22;47555;51.038;6.280;2023-05-07T08:35:29;20.40;89.00
25154;DHT22;47555;51.038;6.280;2023-05-07T08:37:55;20.50;88.90
25154;DHT22;47555;51.038;6.280;2023-05-07T08:40:24;20.60;87.10
25154;DHT22;47555;51.038;6.280;2023-05-07T08:42:52;20.60;84.30
25154;DHT22;47555;51.038;6.280;2023-05-07T08:45:19;20.60;83.60
25154;DHT22;47555;51.038;6.280;2023-05-07T08:47:47;20.70;86.00
25154;DHT22;47555;51.038;6.280;2023-05-07T08:50:16;20.70;86.10
25154;DHT22;47555;51.038;6.280;2023-05-07T08:52:41;20.80;86.90
25154;DHT22;47555;51.038;6.280;2023-05-07T08:55:08;20.80;83.70
25154;DHT22;47555;51.038;6.280;2023-05-07T08:57:34;20.50;81.00
25154;DHT22;47555;51.038;6.280;2023-05-07T09:00:00;20.60;82.30
25154;DHT22;47555;51.038;6.280;2023-05-07T09:02:25;20.60;83.70
25154;DHT22;47555;51.038;6.280;2023-05-07T09:04:51;20.60;85.10
25154;DHT22;47555;51.038;6.280;2023-05-07T09:07:16;20.60;83.80
25154;DHT22;47555;51.038;6.280;2023-05-07T09:09:44;20.70;84.60
25154;DHT22;47555;51.038;6.280;2023-05-07T09:12:10;20.80;86.80
25154;DHT22;47555;51.038;6.280;2023-05-07T09:14:35;20.80;85.10
25154;DHT22;47555;51.038;6.280;2023-05-07T09:17:01;20.90;80.50
25154;DHT22;47555;51.038;6.280;2023-05-07T09:19:27;20.90;83.40
25154;DHT22;47555;51.038;6.280;2023-05-07T09:22:03;21.00;82.70
25154;DHT22;47555;51.038;6.280;2023-05-07T09:24:30;21.30;86.10
25154;DHT22;47555;51.038;6.280;2023-05-07T09:29:26;21.60;79.20
25154;DHT22;47555;51.038;6.280;2023-05-07T09:31:54;22.00;73.80
25154;DHT22;47555;51.038;6.280;2023-05-07T09:34:20;22.00;71.40
25154;DHT22;47555;51.038;6.280;2023-05-07T09:36:45;22.20;67.00
25154;DHT22;47555;51.038;6.280;2023-05-07T09:39:11;22.20;59.50
25154;DHT22;47555;51.038;6.280;2023-05-07T09:41:47;22.20;61.60
25154;DHT22;47555;51.038;6.280;2023-05-07T09:44:15;22.20;59.40
25154;DHT22;47555;51.038;6.280;2023-05-07T09:46:43;22.20;63.50
25154;DHT22;47555;51.038;6.280;2023-05-07T09:49:18;22.30;62.90
25154;DHT22;47555;51.038;6.280;2023-05-07T09:51:48;22.30;63.90
25154;DHT22;47555;51.038;6.280;2023-05-07T09:54:15;22.40;63.60
25154;DHT22;47555;51.038;6.280;2023-05-07T09:56:43;22.50;63.20
25154;DHT22;47555;51.038;6.280;2023-05-07T09:59:12;22.60;65.00
25154;DHT22;47555;51.038;6.280;2023-05-07T10:01:38;22.70;64.00
25154;DHT22;47555;51.038;6.280;2023-05-07T10:04:05;22.70;63.20
25154;DHT22;47555;51.038;6.280;2023-05-07T10:06:34;22.80;65.80
25154;DHT22;47555;51.038;6.280;2023-05-07T10:09:01;22.90;61.00
25154;DHT22;47555;51.038;6.280;2023-05-07T10:11:27;22.90;56.50
25154;DHT22;47555;51.038;6.280;2023-05-07T10:13:53;22.90;59.80
25154;DHT22;47555;51.038;6.280;2023-05-07T10:16:20;23.00;59.30
25154;DHT22;47555;51.038;6.280;2023-05-07T10:18:46;23.00;62.10
25154;DHT22;47555;51.038;6.280;2023-05-07T10:21:19;23.10;62.20
25154;DHT22;47555;51.038;6.280;2023-05-07T10:23:49;23.20;60.80
25154;DHT22;47555;51.038;6.280;2023-05-07T10:26:15;23.20;63.10
25154;DHT22;47555;51.038;6.280;2023-05-07T10:28:44;23.30;56.80
25154;DHT22;47555;51.038;6.280;2023-05-07T10:31:54;23.30;57.50
25154;DHT22;47555;51.038;6.280;2023-05-07T10:34:24;23.30;55.00
25154;DHT22;47555;51.038;6.280;2023-05-07T10:36:52;23.30;50.20
25154;DHT22;47555;51.038;6.280;2023-05-07T10:39:18;23.30;48.10
25154;DHT22;47555;51.038;6.280;2023-05-07T10:41:44;23.20;45.20
25154;DHT22;47555;51.038;6.280;2023-05-07T10:44:10;23.10;45.40
25154;DHT22;47555;51.038;6.280;2023-05-07T10:46:36;23.10;47.80
25154;DHT22;47555;51.038;6.280;2023-05-07T10:51:34;23.10;48.20
25154;DHT22;47555;51.038;6.280;2023-05-07T10:56:42;23.30;43.80
25154;DHT22;47555;51.038;6.280;2023-05-07T11:01:55;23.40;46.80
25154;DHT22;47555;51.038;6.280;2023-05-07T11:04:23;23.50;45.40
25154;DHT22;47555;51.038;6.280;2023-05-07T11:15:10;23.40;42.10
25154;DHT22;47555;51.038;6.280;2023-05-07T11:17:56;23.20;42.90
25154;DHT22;47555;51.038;6.280;2023-05-07T11:20:44;23.20;45.50
25154;DHT22;47555;51.038;6.280;2023-05-07T11:26:09;23.20;43.50
25154;DHT22;47555;51.038;6.280;2023-05-07T11:28:42;23.10;45.80
25154;DHT22;47555;51.038;6.280;2023-05-07T11:31:08;22.90;45.20
25154;DHT22;47555;51.038;6.280;2023-05-07T11:33:35;22.80;46.70
25154;DHT22;47555;51.038;6.280;2023-05-07T11:36:03;22.70;48.20
25154;DHT22;47555;51.038;6.280;2023-05-07T11:38:38;22.60;49.60
25154;DHT22;47555;51.038;6.280;2023-05-07T11:41:21;22.60;51.20
25154;DHT22;47555;51.038;6.280;2023-05-07T11:43:54;22.60;50.70
25154;DHT22;47555;51.038;6.280;2023-05-07T11:46:21;22.60;50.70
25154;DHT22;47555;51.038;6.280;2023-05-07T11:48:47;22.60;49.50
25154;DHT22;47555;51.038;6.280;2023-05-07T11:51:12;22.60;50.50
25154;DHT22;47555;51.038;6.280;2023-05-07T11:53:40;22.60;50.30
25154;DHT22;47555;51.038;6.280;2023-05-07T11:56:11;22.60;50.00
25154;DHT22;47555;51.038;6.280;2023-05-07T11:58:37;22.70;50.20
25154;DHT22;47555;51.038;6.280;2023-05-07T12:01:02;22.70;51.40
25154;DHT22;47555;51.038;6.280;2023-05-07T12:03:28;22.90;51.90
25154;DHT22;47555;51.038;6.280;2023-05-07T12:05:54;23.00;50.20
25154;DHT22;47555;51.038;6.280;2023-05-07T12:08:21;23.10;50.20
25154;DHT22;47555;51.038;6.280;2023-05-07T12:10:48;23.20;48.50
25154;DHT22;47555;51.038;6.280;2023-05-07T12:13:25;23.10;44.90
25154;DHT22;47555;51.038;6.280;2023-05-07T12:15:55;23.10;45.80
25154;DHT22;47555;51.038;6.280;2023-05-07T12:18:21;23.10;45.00
25154;DHT22;47555;51.038;6.280;2023-05-07T12:20:48;23.10;46.00
25154;DHT22;47555;51.038;6.280;2023-05-07T12:23:14;23.10;45.90
25154;DHT22;47555;51.038;6.280;2023-05-07T12:25:41;23.10;45.80
25154;DHT22;47555;51.038;6.280;2023-05-07T12:28:17;23.10;46.70
25154;DHT22;47555;51.038;6.280;2023-05-07T12:30:44;23.20;47.50
25154;DHT22;47555;51.038;6.280;2023-05-07T12:33:10;23.30;48.50
25154;DHT22;47555;51.038;6.280;2023-05-07T12:35:42;23.30;48.70
25154;DHT22;47555;51.038;6.280;2023-05-07T12:38:17;23.20;49.90
25154;DHT22;47555;51.038;6.280;2023-05-07T12:40:53;23.30;49.00
25154;DHT22;47555;51.038;6.280;2023-05-07T12:43:27;23.30;49.30
25154;DHT22;47555;51.038;6.280;2023-05-07T12:45:57;23.30;47.40
25154;DHT22;47555;51.038;6.280;2023-05-07T12:48:23;23.30;47.40
25154;DHT22;47555;51.038;6.280;2023-05-07T12:50:53;23.20;44.00
25154;DHT22;47555;51.038;6.280;2023-05-07T12:53:21;23.10;46.10
25154;DHT22;47555;51.038;6.280;2023-05-07T12:55:49;22.90;45.70
25154;DHT22;47555;51.038;6.280;2023-05-07T12:58:19;22.70;46.20
25154;DHT22;47555;51.038;6.280;2023-05-07T13:00:48;22.60;44.90
25154;DHT22;47555;51.038;6.280;2023-05-07T13:03:25;22.40;47.60
25154;DHT22;47555;51.038;6.280;2023-05-07T13:05:52;22.10;49.10
25154;DHT22;47555;51.038;6.280;2023-05-07T13:08:35;21.90;48.10
25154;DHT22;47555;51.038;6.280;2023-05-07T13:11:03;21.80;49.20
25154;DHT22;47555;51.038;6.280;2023-05-07T13:13:36;21.50;52.60
25154;DHT22;47555;51.038;6.280;2023-05-07T13:16:02;21.10;61.90
25154;DHT22;47555;51.038;6.280;2023-05-07T13:18:30;20.50;81.90
25154;DHT22;47555;51.038;6.280;2023-05-07T13:20:56;19.20;87.00
25154;DHT22;47555;51.038;6.280;2023-05-07T13:23:21;18.30;90.80
25154;DHT22;47555;51.038;6.280;2023-05-07T13:25:48;17.90;96.10
25154;DHT22;47555;51.038;6.280;2023-05-07T13:28:13;17.50;97.60
25154;DHT22;47555;51.038;6.280;2023-05-07T13:30:39;17.30;99.90
25154;DHT22;47555;51.038;6.280;2023-05-07T13:33:06;17.10;99.90
25154;DHT22;47555;51.038;6.280;2023-05-07T13:35:32;16.80;95.70
25154;DHT22;47555;51.038;6.280;2023-05-07T13:37:57;16.60;90.30
25154;DHT22;47555;51.038;6.280;2023-05-07T13:40:23;16.40;92.80
25154;DHT22;47555;51.038;6.280;2023-05-07T13:42:49;16.30;95.20
25154;DHT22;47555;51.038;6.280;2023-05-07T13:45:16;16.20;96.50
25154;DHT22;47555;51.038;6.280;2023-05-07T13:47:42;16.10;98.60
25154;DHT22;47555;51.038;6.280;2023-05-07T13:50:09;16.10;95.20
25154;DHT22;47555;51.038;6.280;2023-05-07T13:52:35;16.10;97.30
25154;DHT22;47555;51.038;6.280;2023-05-07T13:55:00;16.10;98.70
25154;DHT22;47555;51.038;6.280;2023-05-07T13:57:26;16.10;99.90
25154;DHT22;47555;51.038;6.280;2023-05-07T13:59:51;16.10;99.90
25154;DHT22;47555;51.038;6.280;2023-05-07T14:02:17;16.20;99.90
25154;DHT22;47555;51.038;6.280;2023-05-07T14:04:42;16.20;99.90
25154;DHT22;47555;51.038;6.280;2023-05-07T14:07:08;16.20;99.90
25154;DHT22;47555;51.038;6.280;2023-05-07T14:09:33;16.20;99.90
25154;DHT22;47555;51.038;6.280;2023-05-07T14:11:59;16.20;99.90
25154;DHT22;47555;51.038;6.280;2023-05-07T14:14:25;16.20;99.90
25154;DHT22;47555;51.038;6.280;2023-05-07T14:16:50;16.30;99.90
25154;DHT22;47555;51.038;6.280;2023-05-07T14:19:16;16.40;99.90
25154;DHT22;47555;51.038;6.280;2023-05-07T14:21:42;16.40;99.90
25154;DHT22;47555;51.038;6.280;2023-05-07T14:24:07;16.50;99.90
25154;DHT22;47555;51.038;6.280;2023-05-07T14:26:34;16.50;99.90
25154;DHT22;47555;51.038;6.280;2023-05-07T14:28:59;16.60;99.90
25154;DHT22;47555;51.038;6.280;2023-05-07T14:31:25;16.70;99.90
25154;DHT22;47555;51.038;6.280;2023-05-07T14:33:51;16.80;99.90
25154;DHT22;47555;51.038;6.280;2023-05-07T14:36:17;17.00;99.90
25154;DHT22;47555;51.038;6.280;2023-05-07T14:38:45;17.00;99.90
25154;DHT22;47555;51.038;6.280;2023-05-07T14:41:11;17.10;99.90
25154;DHT22;47555;51.038;6.280;2023-05-07T14:43:36;17.20;99.90
25154;DHT22;47555;51.038;6.280;2023-05-07T14:46:02;17.30;99.90
25154;DHT22;47555;51.038;6.280;2023-05-07T14:48:27;17.30;99.90
25154;DHT22;47555;51.038;6.280;2023-05-07T14:50:53;17.40;99.90
25154;DHT22;47555;51.038;6.280;2023-05-07T14:53:18;17.50;99.90
25154;DHT22;47555;51.038;6.280;2023-05-07T14:55:44;17.50;99.90
25154;DHT22;47555;51.038;6.280;2023-05-07T14:58:10;17.60;99.90
25154;DHT22;47555;51.038;6.280;2023-05-07T15:00:36;17.70;99.90
25154;DHT22;47555;51.038;6.280;2023-05-07T15:03:06;17.90;99.90
25154;DHT22;47555;51.038;6.280;2023-05-07T15:05:32;18.00;99.90
25154;DHT22;47555;51.038;6.280;2023-05-07T15:07:58;18.00;99.90
25154;DHT22;47555;51.038;6.280;2023-05-07T15:10:23;18.20;99.90
25154;DHT22;47555;51.038;6.280;2023-05-07T15:12:49;18.20;99.90
25154;DHT22;47555;51.038;6.280;2023-05-07T15:15:14;18.20;99.90
25154;DHT22;47555;51.038;6.280;2023-05-07T15:17:40;18.30;99.90
25154;DHT22;47555;51.038;6.280;2023-05-07T15:20:06;18.30;99.90
25154;DHT22;47555;51.038;6.280;2023-05-07T15:22:32;18.30;99.90
25154;DHT22;47555;51.038;6.280;2023-05-07T15:24:57;18.40;99.90
25154;DHT22;47555;51.038;6.280;2023-05-07T15:27:24;18.40;99.90
25154;DHT22;47555;51.038;6.280;2023-05-07T15:29:49;18.40;99.90
25154;DHT22;47555;51.038;6.280;2023-05-07T15:32:15;18.50;99.90
25154;DHT22;47555;51.038;6.280;2023-05-07T15:34:40;18.50;99.90
25154;DHT22;47555;51.038;6.280;2023-05-07T15:37:06;18.60;99.90
25154;DHT22;47555;51.038;6.280;2023-05-07T15:39:32;18.60;99.90
25154;DHT22;47555;51.038;6.280;2023-05-07T15:41:57;18.70;99.90
25154;DHT22;47555;51.038;6.280;2023-05-07T15:44:23;18.70;99.90
25154;DHT22;47555;51.038;6.280;2023-05-07T15:46:52;18.80;99.90
25154;DHT22;47555;51.038;6.280;2023-05-07T15:49:18;18.80;99.90
25154;DHT22;47555;51.038;6.280;2023-05-07T15:51:44;18.80;99.90
25154;DHT22;47555;51.038;6.280;2023-05-07T15:54:09;18.90;99.90